Time;durP1;ratioP1;P1;durP2;ratioP2;P2;SDS_P1;SDS_P2;PMS_P1;PMS_P2;Temp;Humidity;BMP_temperature;BMP_pressure;BME280_temperature;BME280_humidity;BME280_pressure;Samples;Min_cycle;Max_cycle;Signal;HPM_P1;HPM_P2
2023/04/02 00:00:09;;;;;;;44.90;24.20;;;;;;;8.93;87.35;97476.86;104682;1264;98399;-68
2023/04/02 00:03:00;;;;;;;42.10;24.00;;;;;;;8.92;87.50;97475.01;104641;1264;111126;-68
2023/04/02 00:05:49;;;;;;;50.60;26.20;;;;;;;8.87;86.95;97477.70;104605;1266;98647;-67
2023/04/02 00:08:22;;;;;;;51.80;27.20;;;;;;;8.78;87.39;97481.44;104921;1263;107609;-68
2023/04/02 00:10:52;;;;;;;53.10;27.70;;;;;;;8.81;87.58;97480.50;104605;1279;98001;-68
2023/04/02 00:13:31;;;;;;;47.70;26.40;;;;;;;8.79;87.32;97484.05;104618;1265;98889;-67
2023/04/02 00:15:59;;;;;;;58.70;27.50;;;;;;;8.82;87.88;97485.33;104871;1263;112080;-68
2023/04/02 00:18:26;;;;;;;56.50;27.80;;;;;;;8.89;87.87;97483.11;104838;1263;99155;-67
2023/04/02 00:21:08;;;;;;;59.50;28.20;;;;;;;8.95;87.80;97487.39;104820;1276;108562;-67
2023/04/02 00:23:38;;;;;;;52.80;27.10;;;;;;;9.01;87.80;97489.48;104844;1271;99215;-67
2023/04/02 00:26:30;;;;;;;56.90;27.20;;;;;;;9.08;87.92;97490.36;104842;1263;97982;-67
2023/04/02 00:29:00;;;;;;;61.50;27.10;;;;;;;9.10;87.25;97487.55;104979;1263;112155;-68
2023/04/02 00:31:28;;;;;;;56.30;26.30;;;;;;;9.10;87.55;97491.22;104809;1261;99133;-67
2023/04/02 00:33:57;;;;;;;54.90;26.60;;;;;;;9.13;87.75;97489.48;104891;1272;107729;-67
2023/04/02 00:36:28;;;;;;;63.40;29.50;;;;;;;9.13;87.56;97488.46;104953;1264;97892;-67
2023/04/02 00:38:58;;;;;;;57.70;27.40;;;;;;;9.02;87.18;97489.19;104977;1262;97966;-68
2023/04/02 00:41:29;;;;;;;59.40;28.20;;;;;;;8.88;87.62;97490.88;104549;1265;111293;-68
2023/04/02 00:43:59;;;;;;;51.00;24.40;;;;;;;8.90;88.40;97489.23;104920;1258;99410;-68
2023/04/02 00:46:45;;;;;;;45.60;22.60;;;;;;;8.88;87.83;97489.95;104585;1265;108187;-68
2023/04/02 00:49:35;;;;;;;43.70;22.60;;;;;;;8.84;87.99;97494.30;104536;1275;98114;-67
2023/04/02 00:52:15;;;;;;;37.50;19.50;;;;;;;8.81;88.11;97493.72;104905;1261;99135;-68
2023/04/02 00:55:05;;;;;;;28.30;17.30;;;;;;;8.90;88.55;97494.23;104617;1266;111242;-68
2023/04/02 00:57:32;;;;;;;32.80;16.90;;;;;;;8.94;88.19;97496.64;105003;1263;98997;-68
2023/04/02 01:00:14;;;;;;;26.10;15.80;;;;;;;8.96;88.21;97494.61;104984;1279;98351;-68
2023/04/02 01:02:41;;;;;;;26.10;15.30;;;;;;;8.92;87.58;97490.80;104970;1263;97992;-67
2023/04/02 01:05:15;;;;;;;28.60;14.90;;;;;;;8.88;87.67;97496.41;104646;1266;99296;-67
2023/04/02 01:07:54;;;;;;;27.10;15.60;;;;;;;8.86;88.19;97494.61;104977;1263;112424;-67
2023/04/02 01:10:27;;;;;;;26.50;14.60;;;;;;;8.91;88.20;97496.52;104985;1263;98220;-67
2023/04/02 01:13:13;;;;;;;26.20;14.70;;;;;;;8.88;88.48;97499.67;104610;1265;107583;-68
2023/04/02 01:16:26;;;;;;;26.90;14.50;;;;;;;8.87;88.52;97501.05;104530;1266;98061;-69
2023/04/02 01:19:44;;;;;;;26.40;14.10;;;;;;;8.87;88.71;97499.40;104124;1269;99219;-69
2023/04/02 01:22:18;;;;;;;29.10;17.10;;;;;;;8.76;88.09;97498.06;103770;1271;112432;-69
2023/04/02 01:24:46;;;;;;;29.50;16.40;;;;;;;8.62;88.46;97505.10;103429;1280;98801;-69
2023/04/02 01:27:27;;;;;;;25.40;15.40;;;;;;;8.59;89.08;97504.34;103834;1285;108659;-69
2023/04/02 01:29:58;;;;;;;28.70;15.40;;;;;;;8.64;89.51;97507.38;103699;1295;98111;-69
2023/04/02 01:32:27;;;;;;;26.60;16.20;;;;;;;8.71;89.47;97508.02;103450;1280;98144;-69
2023/04/02 01:35:01;;;;;;;22.60;13.70;;;;;;;8.71;89.18;97512.09;103684;1288;112315;-69
2023/04/02 01:37:49;;;;;;;23.90;14.20;;;;;;;8.67;88.85;97510.60;103481;1280;98683;-69
2023/04/02 01:40:35;;;;;;;21.60;12.80;;;;;;;8.73;89.55;97511.13;103850;1276;108304;-69
2023/04/02 01:43:19;;;;;;;21.30;13.40;;;;;;;8.80;89.50;97512.59;103797;1285;98009;-69
2023/04/02 01:45:53;;;;;;;23.00;12.90;;;;;;;8.87;89.43;97517.59;103702;1274;98701;-69
2023/04/02 01:48:29;;;;;;;24.20;13.60;;;;;;;8.84;88.88;97515.23;103779;1277;111982;-68
2023/04/02 01:51:07;;;;;;;23.60;14.00;;;;;;;8.77;88.83;97518.62;103398;1280;98935;-69
2023/04/02 01:53:36;;;;;;;26.30;13.70;;;;;;;8.71;88.82;97514.85;103836;1273;107153;-68
2023/04/02 01:56:09;;;;;;;28.60;14.70;;;;;;;8.66;89.08;97518.58;104022;1274;99322;-68
2023/04/02 01:58:37;;;;;;;33.10;17.40;;;;;;;8.65;89.67;97521.20;104452;1273;98016;-68
2023/04/02 02:01:17;;;;;;;32.20;18.00;;;;;;;8.60;89.70;97524.36;104609;1265;110790;-68
2023/04/02 02:03:45;;;;;;;29.40;18.00;;;;;;;8.60;89.82;97528.17;104733;1272;99214;-69
2023/04/02 02:06:15;;;;;;;28.90;18.50;;;;;;;8.59;89.83;97526.41;104558;1274;97891;-69
2023/04/02 02:08:50;;;;;;;28.00;17.20;;;;;;;8.59;90.04;97530.49;104447;1266;99195;-69
2023/04/02 02:11:23;;;;;;;30.50;18.30;;;;;;;8.59;90.05;97529.08;104438;1274;98329;-69
2023/04/02 02:13:55;;;;;;;33.80;18.60;;;;;;;8.64;90.54;97530.38;104466;1277;111501;-70
2023/04/02 02:16:23;;;;;;;37.70;21.90;;;;;;;8.66;90.57;97529.76;104591;1272;99229;-66
2023/04/02 02:18:54;;;;;;;39.00;21.80;;;;;;;8.64;90.12;97528.83;104671;1265;108771;-70
2023/04/02 02:21:26;;;;;;;;;;;;;;;8.64;90.25;97532.73;104834;1273;97929;-70
2023/04/02 02:23:54;;;;;;;31.60;18.60;;;;;;;8.68;90.33;97530.67;104751;1275;98828;-69
2023/04/02 02:26:23;;;;;;;31.80;18.80;;;;;;;8.66;89.95;97532.02;104797;1274;112111;-69
2023/04/02 02:28:53;;;;;;;32.80;18.60;;;;;;;8.66;90.14;97534.67;104795;1264;99227;-69
2023/04/02 02:31:29;;;;;;;29.00;17.60;;;;;;;8.73;90.46;97533.77;104434;1259;109089;-70
2023/04/02 02:34:05;;;;;;;28.60;17.50;;;;;;;8.83;90.67;97536.88;104731;1275;97898;-70
2023/04/02 02:36:51;;;;;;;29.80;16.50;;;;;;;8.79;89.68;97536.97;104704;1275;98181;-71
2023/04/02 02:39:24;;;;;;;27.90;15.70;;;;;;;8.71;89.79;97536.91;104649;1261;230508;-70
2023/04/02 02:41:59;;;;;;;27.40;15.70;;;;;;;8.66;90.00;97538.64;104916;1261;99164;-70
2023/04/02 02:44:30;;;;;;;32.80;18.90;;;;;;;8.64;90.41;97539.57;104775;1264;108578;-70
2023/04/02 02:47:02;;;;;;;31.30;17.50;;;;;;;8.66;90.53;97537.31;104790;1273;99300;-70
2023/04/02 02:49:38;;;;;;;27.60;16.80;;;;;;;8.67;90.36;97542.80;104860;1264;98346;-70
2023/04/02 02:52:15;;;;;;;28.40;17.00;;;;;;;8.63;90.11;97541.95;104829;1261;112009;-70
2023/04/02 02:54:53;;;;;;;28.80;17.50;;;;;;;8.56;89.87;97544.42;104848;1261;99533;-70
2023/04/02 02:57:32;;;;;;;26.60;17.00;;;;;;;8.53;90.15;97544.99;104706;1260;106512;-70
2023/04/02 03:00:02;;;;;;;30.50;17.10;;;;;;;8.56;90.81;97544.00;104864;1281;97926;-68
2023/04/02 03:02:29;;;;;;;33.90;18.40;;;;;;;8.56;90.21;97549.79;104790;1264;98313;-69
2023/04/02 03:04:57;;;;;;;28.80;16.90;;;;;;;8.52;90.34;97553.17;104858;1261;98008;-68
2023/04/02 03:07:26;;;;;;;31.60;16.70;;;;;;;8.46;90.44;97555.20;104850;1271;99227;-68
2023/04/02 03:10:11;;;;;;;32.40;17.40;;;;;;;8.40;90.79;97556.46;104651;1262;108525;-69
2023/04/02 03:12:59;;;;;;;34.20;18.40;;;;;;;8.43;91.29;97557.90;104828;1263;98871;-68
2023/04/02 03:15:44;;;;;;;32.00;16.80;;;;;;;8.53;91.59;97552.92;104642;1268;98292;-68
2023/04/02 03:18:34;;;;;;;32.80;16.40;;;;;;;8.60;91.75;97556.58;104697;1273;111375;-68
2023/04/02 03:21:25;;;;;;;32.10;16.90;;;;;;;8.65;91.53;97552.42;104723;1260;98602;-67
2023/04/02 03:24:00;;;;;;;34.20;18.20;;;;;;;8.66;91.26;97553.02;104738;1265;108549;-68
2023/04/02 03:26:39;;;;;;;34.00;17.60;;;;;;;8.57;90.52;97556.61;104592;1271;97881;-68
2023/04/02 03:29:40;;;;;;;29.50;16.00;;;;;;;8.43;90.71;97559.38;104533;1259;98619;-67
2023/04/02 03:32:22;;;;;;;32.20;17.50;;;;;;;8.30;91.24;97559.86;104093;1287;112345;-68
2023/04/02 03:34:58;;;;;;;32.90;18.30;;;;;;;8.33;92.21;97564.35;104187;1269;99159;-69
2023/04/02 03:37:51;;;;;;;31.40;17.70;;;;;;;8.42;92.20;97568.09;104400;1269;108652;-73
2023/04/02 03:40:23;;;;;;;33.00;19.20;;;;;;;8.45;91.63;97569.84;104040;1272;99191;-72
2023/04/02 03:42:57;;;;;;;33.80;18.60;;;;;;;8.40;91.55;97568.77;104558;1266;98440;-69
2023/04/02 03:45:31;;;;;;;31.10;19.00;;;;;;;8.39;91.82;97572.79;104301;1275;110804;-66
2023/04/02 03:48:02;;;;;;;32.50;18.10;;;;;;;8.51;92.46;97575.48;104204;1264;98401;-68
2023/04/02 03:50:44;;;;;;;30.50;18.30;;;;;;;8.60;92.32;97576.55;104438;1280;108632;-67
2023/04/02 03:53:11;;;;;;;28.70;16.90;;;;;;;8.66;92.13;97578.28;104546;1267;99386;-68
2023/04/02 03:55:40;;;;;;;33.40;18.60;;;;;;;8.75;92.20;97585.92;104493;1279;98213;-67
2023/04/02 03:58:20;;;;;;;29.60;17.40;;;;;;;8.81;92.09;97591.45;104478;1276;112174;-67
2023/04/02 04:00:59;;;;;;;28.80;16.10;;;;;;;8.89;92.20;97591.06;104230;1281;98476;-68
2023/04/02 04:03:39;;;;;;;31.90;18.10;;;;;;;8.88;91.73;97592.96;104384;1269;106308;-68
2023/04/02 04:06:28;;;;;;;29.90;17.10;;;;;;;8.87;91.42;97597.91;104083;1277;98820;-69
2023/04/02 04:08:59;;;;;;;33.70;19.40;;;;;;;8.74;90.89;97601.06;104321;1270;98082;-70
2023/04/02 04:11:36;;;;;;;34.80;19.70;;;;;;;8.71;91.68;97604.09;104541;1265;112154;-69
2023/04/02 04:14:31;;;;;;;38.90;21.70;;;;;;;8.70;91.64;97603.39;104597;1263;99035;-69
2023/04/02 04:17:12;;;;;;;41.40;20.60;;;;;;;8.66;91.49;97609.02;104580;1271;108699;-70
2023/04/02 04:19:48;;;;;;;34.10;20.30;;;;;;;8.68;91.84;97608.41;104297;1265;99228;-69
2023/04/02 04:22:29;;;;;;;40.30;22.70;;;;;;;8.75;92.08;97614.78;104365;1276;98474;-69
2023/04/02 04:24:58;;;;;;;37.50;20.40;;;;;;;8.75;91.56;97615.96;104361;1277;112313;-69
2023/04/02 04:28:04;;;;;;;36.60;20.60;;;;;;;8.78;92.19;97616.86;104204;1282;98062;-68
2023/04/02 04:30:41;;;;;;;38.80;20.40;;;;;;;8.81;91.75;97618.39;103899;1269;108707;-68
2023/04/02 04:33:21;;;;;;;37.70;19.30;;;;;;;8.84;91.81;97622.33;103962;1273;98097;-68
2023/04/02 04:35:56;;;;;;;34.90;19.60;;;;;;;8.84;91.42;97625.98;104020;1274;98096;-68
2023/04/02 04:38:33;;;;;;;35.60;19.60;;;;;;;8.84;91.58;97624.88;104028;1276;111335;-67
2023/04/02 04:41:17;;;;;;;36.50;19.30;;;;;;;8.73;91.34;97626.04;103913;1275;98285;-67
2023/04/02 04:43:50;;;;;;;41.70;23.30;;;;;;;8.72;92.25;97626.52;103975;1283;107276;-66
2023/04/02 04:46:29;;;;;;;35.10;19.40;;;;;;;8.73;91.97;97628.60;103959;1275;98090;-66
2023/04/02 04:49:35;;;;;;;32.30;18.90;;;;;;;8.71;91.88;97629.06;104088;1273;99212;-66
2023/04/02 04:52:24;;;;;;;36.20;20.30;;;;;;;8.65;91.98;97631.75;103910;1281;112356;-66
2023/04/02 04:54:51;;;;;;;34.90;19.50;;;;;;;8.63;92.01;97631.45;103788;1273;99433;-67
2023/04/02 04:57:35;;;;;;;36.40;20.40;;;;;;;8.62;92.32;97635.96;103715;1276;98034;-68
2023/04/02 05:00:21;;;;;;;38.10;20.20;;;;;;;8.67;92.62;97638.55;103819;1277;98118;-68
2023/04/02 05:03:02;;;;;;;42.30;22.80;;;;;;;8.69;92.60;97640.41;103870;1287;98509;-69
2023/04/02 05:05:33;;;;;;;43.50;24.30;;;;;;;8.72;92.66;97640.49;103755;1277;111484;-69
2023/04/02 05:08:22;;;;;;;40.80;21.80;;;;;;;8.74;92.67;97645.89;104109;1277;99396;-69
2023/04/02 05:11:04;;;;;;;36.20;18.60;;;;;;;8.74;92.57;97651.19;104270;1269;107552;-68
2023/04/02 05:13:53;;;;;;;34.60;18.40;;;;;;;8.62;92.81;97655.81;104478;1279;98089;-69
2023/04/02 05:16:30;;;;;;;34.10;18.90;;;;;;;8.51;93.58;97658.16;104256;1270;98187;-67
2023/04/02 05:19:00;;;;;;;38.80;19.50;;;;;;;8.41;93.58;97662.49;104315;1277;111046;-66
2023/04/02 05:21:46;;;;;;;166.00;91.50;;;;;;;8.28;94.60;97660.39;104232;1268;98156;-64
2023/04/02 05:24:18;;;;;;;37.00;19.70;;;;;;;8.04;95.78;97663.81;104268;1269;108845;-70
2023/04/02 05:26:49;;;;;;;26.70;14.10;;;;;;;7.85;96.73;97665.21;104257;1280;97993;-70
2023/04/02 05:29:23;;;;;;;25.40;11.20;;;;;;;7.66;97.65;97671.91;104562;1261;97916;-72
2023/04/02 05:32:02;;;;;;;29.90;13.90;;;;;;;7.50;97.72;97672.52;104580;1275;112319;-70
2023/04/02 05:34:34;;;;;;;27.70;12.60;;;;;;;7.39;98.64;97675.89;104763;1264;99177;-72
2023/04/02 05:37:01;;;;;;;27.60;12.30;;;;;;;7.34;99.24;97683.39;104806;1263;108499;-72
2023/04/02 05:39:31;;;;;;;25.00;12.60;;;;;;;7.29;99.23;97684.47;104535;1265;97992;-72
2023/04/02 05:42:04;;;;;;;19.80;9.70;;;;;;;7.26;99.98;97692.42;104782;1268;97849;-73
2023/04/02 05:44:34;;;;;;;25.40;12.20;;;;;;;7.22;99.94;97698.06;104851;1271;112391;-73
2023/04/02 05:47:12;;;;;;;28.00;12.50;;;;;;;7.21;100.00;97707.66;104643;1269;98752;-72
2023/04/02 05:50:07;;;;;;;25.40;11.40;;;;;;;7.16;100.00;97711.89;104567;1276;107630;-71
2023/04/02 05:53:33;;;;;;;15.70;7.30;;;;;;;7.05;99.44;97717.00;104781;1266;97932;-72
2023/04/02 05:56:05;;;;;;;9.00;5.20;;;;;;;6.87;99.39;97721.48;104027;1274;97962;-73
2023/04/02 05:58:41;;;;;;;7.20;4.20;;;;;;;6.80;99.22;97725.92;104007;1282;112116;-74
2023/04/02 06:01:38;;;;;;;5.70;3.70;;;;;;;6.60;98.17;97738.71;103840;1276;98825;-75
2023/04/02 06:04:22;;;;;;;6.70;4.70;;;;;;;6.46;98.53;97740.90;103926;1275;108262;-74
2023/04/02 06:07:04;;;;;;;8.30;5.70;;;;;;;6.35;98.34;97748.90;103870;1273;98084;-74
2023/04/02 06:09:48;;;;;;;7.80;4.90;;;;;;;6.31;98.28;97760.75;103584;1284;98533;-74
2023/04/02 06:12:40;;;;;;;7.60;4.50;;;;;;;6.16;97.11;97766.58;103792;1274;112249;-74
2023/04/02 06:15:15;;;;;;;5.80;3.70;;;;;;;6.00;97.05;97773.08;103869;1281;99131;-73
2023/04/02 06:17:46;;;;;;;8.60;3.80;;;;;;;5.95;97.50;97780.80;103923;1294;107615;-75
2023/04/02 06:20:17;;;;;;;15.30;7.90;;;;;;;5.89;96.67;97790.76;103614;1277;99427;-73
2023/04/02 06:22:55;;;;;;;76.20;22.30;;;;;;;5.83;97.00;97796.83;103901;1276;99072;-73
2023/04/02 06:25:43;;;;;;;70.50;21.70;;;;;;;5.76;96.55;97808.60;103896;1284;113647;-72
2023/04/02 06:28:18;;;;;;;39.10;14.00;;;;;;;5.70;96.57;97816.81;104103;1285;99143;-72
2023/04/02 06:30:47;;;;;;;439.50;124.30;;;;;;;5.60;96.26;97822.87;103787;1287;106975;-70
2023/04/02 06:33:14;;;;;;;120.30;37.00;;;;;;;5.48;96.18;97828.20;104422;1277;97929;-70
2023/04/02 06:35:45;;;;;;;51.40;16.50;;;;;;;5.41;96.51;97835.79;104727;1274;98411;-70
2023/04/02 06:38:24;;;;;;;8.30;3.90;;;;;;;5.27;96.05;97840.82;104834;1266;112182;-73
2023/04/02 06:40:58;;;;;;;103.30;27.70;;;;;;;5.15;96.30;97845.80;104775;1264;98632;-71
2023/04/02 06:43:25;;;;;;;24.10;8.10;;;;;;;5.12;96.74;97850.67;104948;1280;108336;-72
2023/04/02 06:45:57;;;;;;;66.50;20.60;;;;;;;5.06;96.95;97856.12;104963;1262;98011;-71
2023/04/02 06:48:24;;;;;;;;;;;;;;;5.07;97.33;97864.34;106110;1263;97842;-71
2023/04/02 06:50:58;;;;;;;132.70;33.50;;;;;;;5.07;97.53;97869.61;104964;1272;97896;-71
2023/04/02 06:53:33;;;;;;;62.80;19.00;;;;;;;5.07;97.45;97873.79;104958;1270;99211;-70
2023/04/02 06:56:09;;;;;;;100.50;25.10;;;;;;;5.05;97.17;97880.41;104971;1264;108279;-70
2023/04/02 06:58:36;;;;;;;34.30;11.50;;;;;;;5.06;97.45;97881.80;104892;1280;97892;-70
2023/04/02 07:01:03;;;;;;;11.60;4.30;;;;;;;5.07;97.32;97883.19;104819;1263;97896;-70
2023/04/02 07:03:31;;;;;;;665.20;207.30;;;;;;;4.99;96.78;97886.36;104939;1270;99188;-71
2023/04/02 07:06:01;;;;;;;93.80;26.40;;;;;;;5.03;97.37;97891.67;104690;1273;98137;-71
2023/04/02 07:08:28;;;;;;;65.20;20.30;;;;;;;5.07;97.21;97896.99;105076;1271;108384;-70
2023/04/02 07:10:55;;;;;;;128.60;56.70;;;;;;;5.08;96.78;97903.27;104992;1270;99228;-71
2023/04/02 07:13:23;;;;;;;23.40;12.80;;;;;;;5.09;96.81;97908.84;105024;1264;97997;-70
2023/04/02 07:15:52;;;;;;;27.10;17.60;;;;;;;5.05;96.22;97909.94;104881;1273;98885;-71
2023/04/02 07:18:32;;;;;;;17.00;12.60;;;;;;;5.00;95.83;97919.42;105050;1271;99018;-70
2023/04/02 07:21:04;;;;;;;6.40;5.00;;;;;;;4.98;95.60;97928.41;104879;1261;108581;-71
2023/04/02 07:23:31;;;;;;;12.70;9.60;;;;;;;4.95;95.24;97930.41;104845;1270;97919;-71
2023/04/02 07:25:58;;;;;;;7.80;6.00;;;;;;;4.84;94.73;97940.00;105060;1261;99251;-70
2023/04/02 07:28:25;;;;;;;25.00;19.70;;;;;;;4.77;95.17;97942.02;104994;1263;97906;-71
2023/04/02 07:30:54;;;;;;;22.60;18.50;;;;;;;4.82;95.90;97950.63;104981;1271;98488;-71
2023/04/02 07:33:27;;;;;;;18.00;14.30;;;;;;;4.87;96.20;97956.70;104898;1270;99198;-71
2023/04/02 07:35:56;;;;;;;40.40;33.40;;;;;;;4.92;96.19;97959.95;104903;1270;98044;-71
2023/04/02 07:38:23;;;;;;;5.90;3.90;;;;;;;4.92;96.24;97961.18;104902;1270;97905;-71
2023/04/02 07:40:50;;;;;;;4.80;4.10;;;;;;;4.91;95.85;97965.55;104853;1270;97915;-71
2023/04/02 07:43:17;;;;;;;5.70;4.70;;;;;;;4.90;95.80;97970.77;104892;1260;97912;-76
2023/04/02 07:45:44;;;;;;;10.00;8.00;;;;;;;4.90;95.74;97976.85;104831;1258;97990;-74
2023/04/02 07:48:13;;;;;;;6.50;5.50;;;;;;;4.93;95.87;97982.58;104959;1270;98815;-71
2023/04/02 07:50:40;;;;;;;3.90;2.60;;;;;;;4.89;94.50;97985.01;105059;1260;97927;-71
2023/04/02 07:53:28;;;;;;;6.70;3.80;;;;;;;4.74;93.16;97991.77;104985;1270;98033;-71
2023/04/02 07:55:57;;;;;;;4.80;3.10;;;;;;;4.67;93.58;97999.05;105069;1260;99224;-71
2023/04/02 07:58:24;;;;;;;3.30;1.80;;;;;;;4.59;93.37;98005.38;105076;1260;108743;-71
2023/04/02 08:00:51;;;;;;;1.70;1.50;;;;;;;4.45;92.63;98008.80;104972;1272;97927;-71
2023/04/02 08:03:18;;;;;;;1.90;1.10;;;;;;;4.34;92.38;98017.42;105501;1270;98055;-72
2023/04/02 08:05:53;;;;;;;2.20;1.50;;;;;;;4.26;92.55;98019.64;105406;1264;97885;-72
2023/04/02 08:08:21;;;;;;;2.00;1.40;;;;;;;4.26;93.51;98027.67;104995;1262;99289;-72
2023/04/02 08:10:49;;;;;;;1.50;1.20;;;;;;;4.30;93.06;98041.67;104972;1257;108568;-72
2023/04/02 08:13:18;;;;;;;3.70;1.80;;;;;;;4.26;92.14;98045.94;104835;1260;98014;-72
2023/04/02 08:15:45;;;;;;;2.20;1.70;;;;;;;4.17;91.62;98052.88;104997;1264;98324;-71
2023/04/02 08:18:12;;;;;;;12.60;4.80;;;;;;;4.10;92.30;98059.11;104966;1261;112243;-72
2023/04/02 08:20:39;;;;;;;2.60;1.60;;;;;;;4.05;92.21;98065.99;105018;1260;98682;-73
2023/04/02 08:23:15;;;;;;;5.50;3.30;;;;;;;3.92;92.25;98067.73;104938;1261;99196;-73
2023/04/02 08:25:44;;;;;;;5.90;3.70;;;;;;;3.95;93.55;98068.52;104602;1276;98011;-72
2023/04/02 08:28:11;;;;;;;3.40;2.20;;;;;;;4.05;93.63;98079.50;104908;1261;98336;-71
2023/04/02 08:30:38;;;;;;;2.90;2.30;;;;;;;4.04;92.87;98079.71;104751;1260;97928;-71
2023/04/02 08:33:06;;;;;;;2.20;1.30;;;;;;;4.00;92.12;98084.96;104938;1275;98341;-71
2023/04/02 08:35:33;;;;;;;2.30;1.50;;;;;;;3.93;91.73;98084.38;105052;1261;97915;-71
2023/04/02 08:38:01;;;;;;;3.40;2.10;;;;;;;3.89;92.04;98090.31;104823;1270;99223;-71
2023/04/02 08:40:40;;;;;;;3.90;1.80;;;;;;;3.89;92.66;98095.30;104849;1264;97899;-71
2023/04/02 08:43:07;;;;;;;2.30;2.00;;;;;;;3.96;93.43;98096.39;105083;1258;111907;-72
2023/04/02 08:46:05;;;;;;;3.60;2.60;;;;;;;4.06;93.76;98102.36;105043;1260;97988;-72
2023/04/02 08:48:36;;;;;;;4.90;3.00;;;;;;;4.13;93.56;98107.19;104978;1260;108818;-73
2023/04/02 08:51:05;;;;;;;4.30;2.90;;;;;;;4.17;93.22;98110.81;104884;1257;98557;-72
2023/04/02 08:53:36;;;;;;;2.30;1.90;;;;;;;4.16;93.21;98113.79;104787;1273;98069;-73
2023/04/02 08:56:08;;;;;;;;;;;;;;;4.00;91.52;98121.95;104900;1261;112142;-73
2023/04/02 08:58:41;;;;;;;2.90;2.00;;;;;;;3.86;92.36;98127.36;104745;1270;100107;-73
2023/04/02 09:01:30;;;;;;;10.00;5.00;;;;;;;3.88;92.90;98135.11;104839;1263;108702;-73
2023/04/02 09:03:58;;;;;;;4.30;3.00;;;;;;;3.82;93.00;98138.08;104767;1270;97841;-73
2023/04/02 09:06:27;;;;;;;3.60;2.60;;;;;;;3.84;93.57;98145.38;105020;1270;98389;-72
2023/04/02 09:08:57;;;;;;;5.30;3.20;;;;;;;3.91;93.56;98147.33;104928;1261;112224;-75
2023/04/02 09:11:53;;;;;;;6.40;5.00;;;;;;;3.87;92.66;98150.41;105090;1270;99010;-72
2023/04/02 09:14:28;;;;;;;5.40;4.40;;;;;;;3.78;92.72;98151.61;105021;1260;108645;-73
2023/04/02 09:17:00;;;;;;;6.10;3.80;;;;;;;3.82;93.88;98159.16;105052;1261;97879;-73
2023/04/02 09:19:40;;;;;;;5.20;3.10;;;;;;;3.95;94.09;98158.31;105041;1270;98401;-73
2023/04/02 09:22:25;;;;;;;5.50;4.00;;;;;;;3.98;93.15;98161.02;105056;1260;112348;-73
2023/04/02 09:24:54;;;;;;;5.40;3.50;;;;;;;4.01;93.09;98164.79;105087;1258;99267;-73
2023/04/02 09:27:27;;;;;;;4.60;2.90;;;;;;;4.10;93.89;98172.08;105062;1258;108800;-73
2023/04/02 09:30:02;;;;;;;5.50;3.30;;;;;;;4.14;93.21;98170.22;105017;1270;97906;-73
2023/04/02 09:32:51;;;;;;;4.80;3.60;;;;;;;4.06;92.84;98174.89;105002;1260;98660;-73
2023/04/02 09:35:28;;;;;;;5.10;3.50;;;;;;;4.03;92.77;98180.86;105011;1279;112253;-73
2023/04/02 09:38:21;;;;;;;5.70;3.80;;;;;;;4.00;92.90;98190.60;105025;1261;98807;-74
2023/04/02 09:40:54;;;;;;;7.40;5.00;;;;;;;3.98;93.33;98198.16;104986;1271;108207;-73
2023/04/02 09:43:27;;;;;;;8.60;5.40;;;;;;;4.02;93.62;98199.58;104932;1274;97883;-73
2023/04/02 09:46:03;;;;;;;7.30;4.40;;;;;;;4.02;93.69;98208.96;104966;1257;99190;-73
2023/04/02 09:48:42;;;;;;;12.90;6.20;;;;;;;3.98;93.21;98212.04;104758;1260;112174;-73
2023/04/02 09:51:14;;;;;;;9.90;6.30;;;;;;;3.94;93.51;98215.20;105067;1270;98376;-73
2023/04/02 09:54:01;;;;;;;10.20;6.20;;;;;;;3.95;93.79;98218.23;105013;1261;108891;-73
2023/04/02 09:56:33;;;;;;;11.90;7.40;;;;;;;3.87;93.56;98221.59;104936;1260;97899;-73
2023/04/02 09:59:12;;;;;;;11.70;7.40;;;;;;;3.81;94.08;98226.98;105778;1272;99311;-74
2023/04/02 10:01:42;;;;;;;11.10;6.60;;;;;;;3.79;94.47;98228.29;104490;1265;110968;-73
2023/04/02 10:04:42;;;;;;;13.50;8.80;;;;;;;3.66;94.50;98234.27;105038;1270;97993;-73
2023/04/02 10:07:41;;;;;;;15.40;8.60;;;;;;;3.72;95.58;98235.44;104907;1267;109773;-74
2023/04/02 10:10:38;;;;;;;12.90;7.10;;;;;;;3.79;95.37;98236.27;104965;1270;97906;-73
2023/04/02 10:13:17;;;;;;;12.20;8.10;;;;;;;3.83;95.43;98241.51;105002;1261;98347;-73
2023/04/02 10:16:01;;;;;;;13.10;8.70;;;;;;;3.90;95.40;98244.34;104942;1270;111298;-74
2023/04/02 10:18:48;;;;;;;12.70;8.40;;;;;;;3.93;95.38;98248.23;104873;1264;99097;-74
2023/04/02 10:21:27;;;;;;;13.70;8.80;;;;;;;3.98;95.52;98254.39;104636;1267;107430;-73
2023/04/02 10:23:57;;;;;;;11.00;6.80;;;;;;;4.01;95.66;98255.29;104781;1260;97896;-74
2023/04/02 10:26:24;;;;;;;9.40;5.30;;;;;;;4.09;95.41;98258.15;104804;1258;98341;-74
2023/04/02 10:29:03;;;;;;;12.80;7.50;;;;;;;4.15;95.28;98264.21;104834;1274;99094;-73
2023/04/02 10:31:57;;;;;;;13.80;7.30;;;;;;;4.18;94.66;98271.90;104850;1271;100502;-73
2023/04/02 10:34:38;;;;;;;11.90;6.30;;;;;;;4.17;94.28;98274.66;104991;1257;108551;-72
2023/04/02 10:37:23;;;;;;;10.70;6.80;;;;;;;4.10;93.37;98270.91;104855;1271;98158;-74
2023/04/02 10:39:57;;;;;;;10.50;5.70;;;;;;;4.09;94.07;98274.11;104816;1272;99661;-74
2023/04/02 10:42:38;;;;;;;11.20;7.40;;;;;;;4.11;94.05;98274.64;105056;1257;111806;-74
2023/04/02 10:45:40;;;;;;;8.70;5.30;;;;;;;4.13;94.46;98275.12;105099;1260;99418;-73
2023/04/02 10:48:50;;;;;;;9.90;7.00;;;;;;;4.11;94.27;98280.77;104897;1263;108739;-74
2023/04/02 10:51:45;;;;;;;12.50;7.20;;;;;;;4.11;94.22;98286.14;104987;1260;97919;-73
2023/04/02 10:54:32;;;;;;;11.70;7.30;;;;;;;4.06;93.43;98293.22;104951;1259;98227;-73
2023/04/02 10:57:09;;;;;;;13.10;8.20;;;;;;;4.09;94.09;98294.89;105863;1273;112284;-73
2023/04/02 10:59:42;;;;;;;11.00;7.60;;;;;;;4.14;94.27;98296.92;104978;1258;99278;-73
2023/04/02 11:02:26;;;;;;;10.60;6.90;;;;;;;4.19;94.28;98301.71;105013;1257;107234;-74
2023/04/02 11:04:57;;;;;;;7.80;4.80;;;;;;;4.21;93.73;98310.94;104820;1269;97993;-74
2023/04/02 11:07:31;;;;;;;10.40;6.20;;;;;;;4.19;93.53;98316.42;104771;1257;98732;-74
2023/04/02 11:09:59;;;;;;;11.70;7.50;;;;;;;4.19;93.51;98319.63;104925;1257;112456;-74
2023/04/02 11:12:46;;;;;;;11.30;7.30;;;;;;;4.23;93.95;98317.92;105095;1260;98815;-74
2023/04/02 11:15:16;;;;;;;7.90;5.70;;;;;;;4.30;93.78;98321.55;105092;1257;108228;-75
2023/04/02 11:17:44;;;;;;;8.70;5.50;;;;;;;4.34;93.69;98320.66;105073;1261;97912;-74
2023/04/02 11:20:42;;;;;;;10.70;6.30;;;;;;;4.35;93.48;98326.09;105139;1260;98776;-75
2023/04/02 11:23:19;;;;;;;8.20;4.50;;;;;;;4.37;93.60;98325.80;104690;1270;111861;-74
2023/04/02 11:25:47;;;;;;;8.50;5.40;;;;;;;4.37;93.11;98325.54;104382;1273;99587;-74
2023/04/02 11:28:31;;;;;;;9.60;5.70;;;;;;;4.41;92.96;98328.33;104683;1262;108558;-75
2023/04/02 11:30:59;;;;;;;10.20;6.70;;;;;;;4.38;92.09;98327.22;104522;1264;98046;-75
2023/04/02 11:33:41;;;;;;;10.10;6.80;;;;;;;4.37;92.35;98331.55;104589;1269;98432;-73
2023/04/02 11:36:49;;;;;;;15.80;9.30;;;;;;;4.38;92.10;98337.10;104629;1264;112241;-72
2023/04/02 11:39:46;;;;;;;13.80;8.60;;;;;;;4.30;91.74;98339.41;104819;1270;99174;-73
2023/04/02 11:42:26;;;;;;;11.70;7.50;;;;;;;4.35;92.59;98341.14;104732;1280;108770;-72
2023/04/02 11:44:54;;;;;;;8.10;5.10;;;;;;;4.40;92.31;98341.09;104687;1260;99173;-72
2023/04/02 11:47:26;;;;;;;9.70;5.70;;;;;;;4.55;93.03;98340.41;104657;1261;98145;-72
2023/04/02 11:49:54;;;;;;;9.80;6.30;;;;;;;4.63;91.78;98341.06;104834;1260;112224;-72
2023/04/02 11:52:44;;;;;;;9.40;6.10;;;;;;;4.73;91.96;98343.39;104871;1260;99815;-75
2023/04/02 11:55:26;;;;;;;11.30;7.10;;;;;;;4.77;90.85;98346.83;104625;1264;106391;-70
2023/04/02 11:58:34;;;;;;;11.50;6.70;;;;;;;4.77;90.84;98346.39;104909;1261;97960;-70
2023/04/02 12:01:07;;;;;;;10.00;6.80;;;;;;;4.82;89.52;98354.05;104405;1279;98342;-71
2023/04/02 12:03:46;;;;;;;9.50;5.50;;;;;;;4.82;89.93;98353.58;104465;1267;112371;-69